»·PEaware :: DCM2499 KTOA-KCRQ

DCM2499 :: KTOA-KCRQ

FLIGHT INFORMATION

Flight Status: Arrived
Operator:
DotCom
More flights by this operator :: More flights under this callsign
Pilot: Alec D. (17934)
Aircraft: GATES LEARJET LEARJET 35/36
(LJ35)
More flights by this aircraft type
Origin: KTOA Zamperini
United States
Destination: KCRQ McClellan-Palomar
United States
More flights between these airports :: More routes between these airports
Route: V25 PACIF V208 OCN
File this flight plan on PilotEdge
Remarks:
Altitude:
(Current/Filed)
7,000ft
Speed:
(Current/Filed)
275kts
Departed: 16-Jul-19 06:50 PM
Arrived: 16-Jul-19 07:18 PM
Distance/Time
Traveled:
67nm/0:28
Distance/Time
To Go:
Arrived

Flight Plot

Page will automatically refresh every two minutes.

Flight plan parsing failed; only flown route is shown


Map Options




Map Legend


Flown Route
Filed Route
Departure Airport
Arrival Airport
Navaid (VOR, NDB)
Fix

Horizontal Profiles

Position Reports

Time Latitude Longitude Heading Altitude Ground
Speed
16-Jul-19 18:28 33.803556 -118.345381 218 106ft 0kts
16-Jul-19 18:29 33.803556 -118.345381 218 106ft 0kts
16-Jul-19 18:30 33.803556 -118.345381 218 106ft 0kts
16-Jul-19 18:31 33.803556 -118.345381 218 106ft 0kts
16-Jul-19 18:32 33.803556 -118.345381 218 106ft 0kts
16-Jul-19 18:33 33.803556 -118.345381 218 106ft 0kts
16-Jul-19 18:34 33.803556 -118.345381 218 106ft 0kts
16-Jul-19 18:35 33.803556 -118.345381 218 106ft 0kts
16-Jul-19 18:36 33.803556 -118.345381 218 106ft 0kts
16-Jul-19 18:37 33.803556 -118.345381 218 106ft 0kts
16-Jul-19 18:38 33.803556 -118.345381 218 106ft 0kts
16-Jul-19 18:39 33.803556 -118.345381 218 106ft 0kts
16-Jul-19 18:40 33.803556 -118.345381 218 106ft 0kts
16-Jul-19 18:41 33.803556 -118.345381 218 106ft 0kts
16-Jul-19 18:42 33.803428 -118.345258 62 106ft 6kts
16-Jul-19 18:43 33.804212 -118.344744 41 106ft 5kts
16-Jul-19 18:44 33.802496 -118.341483 129 106ft 9kts
16-Jul-19 18:45 33.800231 -118.338073 130 106ft 12kts
16-Jul-19 18:46 33.798078 -118.334516 57 106ft 10kts
16-Jul-19 18:47 33.799076 -118.333528 35 106ft 4kts
16-Jul-19 18:48 33.799870 -118.333309 308 106ft 3kts
16-Jul-19 18:49 33.815662 -118.357260 306 1105ft 186kts
16-Jul-19 18:50 33.851941 -118.411197 308 2937ft 215kts
16-Jul-19 18:51 33.847875 -118.475011 209 4851ft 246kts
16-Jul-19 18:52 33.785135 -118.462888 125 6949ft 274kts
16-Jul-19 18:53 33.754078 -118.379323 112 7013ft 269kts
16-Jul-19 18:54 33.727498 -118.295711 112 7014ft 268kts
16-Jul-19 18:55 33.702153 -118.210225 118 7011ft 274kts
16-Jul-19 18:56 33.655711 -118.138786 136 6997ft 272kts
16-Jul-19 18:57 33.600328 -118.077274 140 6997ft 270kts
16-Jul-19 18:58 33.544135 -118.017768 140 6995ft 269kts
16-Jul-19 18:59 33.487498 -117.959266 141 6997ft 268kts
16-Jul-19 19:01 33.431356 -117.900238 140 6997ft 268kts
16-Jul-19 19:02 33.375306 -117.841179 140 6996ft 268kts
16-Jul-19 19:03 33.319229 -117.782205 140 6996ft 268kts
16-Jul-19 19:04 33.280180 -117.708539 103 7014ft 274kts
16-Jul-19 19:05 33.268344 -117.618355 99 7015ft 275kts
16-Jul-19 19:06 33.256698 -117.527841 100 5563ft 278kts
16-Jul-19 19:07 33.244650 -117.439179 100 5025ft 264kts
16-Jul-19 19:08 33.237908 -117.351690 92 5021ft 265kts
16-Jul-19 19:09 33.235993 -117.263449 92 5023ft 265kts
16-Jul-19 19:10 33.234346 -117.175093 92 4219ft 264kts
16-Jul-19 19:11 33.233047 -117.094918 92 4012ft 206kts
16-Jul-19 19:12 33.197236 -117.054301 166 3683ft 192kts
16-Jul-19 19:13 33.159295 -117.083861 250 3525ft 155kts
16-Jul-19 19:14 33.151563 -117.132556 260 2816ft 150kts
16-Jul-19 19:15 33.144270 -117.180183 259 1972ft 141kts
16-Jul-19 19:16 33.136916 -117.226773 256 1190ft 144kts
16-Jul-19 19:17 33.130032 -117.269126 257 414ft 121kts
16-Jul-19 19:18 33.127017 -117.287331 249 334ft 2kts
16-Jul-19 19:19 33.126534 -117.287475 168 334ft 0kts
16-Jul-19 19:19 33.126269 -117.285935 79 334ft 18kts
16-Jul-19 19:21 33.126275 -117.280826 170 334ft 13kts
16-Jul-19 19:22 33.125489 -117.280298 78 334ft 0kts
16-Jul-19 19:22 33.125489 -117.280298 78 334ft 0kts

Navigation Log

Ident Type
Flight plan parsing failed, navigation log unavailable